Time;durP1;ratioP1;P1;durP2;ratioP2;P2;SDS_P1;SDS_P2;PMS_P1;PMS_P2;Temp;Humidity;BMP_temperature;BMP_pressure;BME280_temperature;BME280_humidity;BME280_pressure;Samples;Min_cycle;Max_cycle;Signal;HPM_P1;HPM_P2
2023/08/13 00:01:26;;;;;;;;;;;19.70;70.70;;;;;;5008997;28;19913;-74
2023/08/13 00:03:52;;;;;;;;;;;19.70;70.50;;;;;;5011702;28;19965;-75
2023/08/13 00:06:17;;;;;;;;;;;19.60;70.40;;;;;;5012283;28;19949;-74
2023/08/13 00:08:43;;;;;;;;;;;19.60;70.20;;;;;;5011504;28;20019;-73
2023/08/13 00:11:11;;;;;;;;;;;19.50;70.20;;;;;;5013518;28;19909;-73
2023/08/13 00:13:37;;;;;;;;;;;19.50;70.20;;;;;;5011736;28;19971;-73
2023/08/13 00:16:03;;;;;;;;;;;19.40;70.20;;;;;;5013079;28;19917;-74
2023/08/13 00:18:29;;;;;;;;;;;19.40;70.20;;;;;;5013520;28;20285;-74
2023/08/13 00:20:54;;;;;;;;;;;19.30;70.30;;;;;;5010476;28;20349;-73
2023/08/13 00:23:20;;;;;;;;;;;19.30;70.50;;;;;;5011994;28;19923;-72
2023/08/13 00:25:46;;;;;;;;;;;19.30;70.70;;;;;;5013065;28;19979;-72
2023/08/13 00:28:11;;;;;;;;;;;19.30;70.80;;;;;;5012019;28;20292;-72
2023/08/13 00:30:37;;;;;;;;;;;19.20;70.80;;;;;;5012984;28;19913;-73
2023/08/13 00:33:02;;;;;;;;;;;19.20;70.90;;;;;;5011606;28;20380;-72
2023/08/13 00:35:28;;;;;;;;;;;19.20;71.40;;;;;;5011278;28;19954;-72
2023/08/13 00:37:53;;;;;;;;;;;19.30;71.60;;;;;;5013193;28;19913;-72
2023/08/13 00:40:18;;;;;;;;;;;19.30;71.60;;;;;;5011849;28;19917;-72
2023/08/13 00:42:44;;;;;;;;;;;19.30;71.70;;;;;;5013503;28;19937;-73
2023/08/13 00:45:09;;;;;;;;;;;19.30;71.80;;;;;;5013015;28;20387;-73
2023/08/13 00:47:36;;;;;;;;;;;19.30;71.80;;;;;;5012023;28;19910;-72
2023/08/13 00:50:03;;;;;;;;;;;19.40;71.80;;;;;;5012902;28;19909;-73
2023/08/13 00:52:28;;;;;;;;;;;19.40;71.60;;;;;;5012041;28;20005;-72
2023/08/13 00:54:54;;;;;;;;;;;19.40;71.40;;;;;;5012846;28;19956;-73
2023/08/13 00:57:19;;;;;;;;;;;19.40;71.50;;;;;;5012880;28;19913;-72
2023/08/13 00:59:44;;;;;;;;;;;19.50;71.80;;;;;;4993430;28;19929;-72
2023/08/13 01:02:10;;;;;;;;;;;19.50;71.80;;;;;;4992732;28;20576;-72
2023/08/13 01:04:35;;;;;;;;;;;19.50;71.60;;;;;;5010959;28;19946;-72
2023/08/13 01:07:20;;;;;;;;;;;19.50;71.40;;;;;;5010863;28;19910;-73
2023/08/13 01:09:49;;;;;;;;;;;19.40;71.20;;;;;;5012270;28;19918;-72
2023/08/13 01:12:29;;;;;;;;;;;19.40;71.30;;;;;;5010853;28;19920;-72
2023/08/13 01:15:00;;;;;;;;;;;19.40;71.30;;;;;;5011519;28;20008;-72
2023/08/13 01:17:25;;;;;;;;;;;19.40;71.20;;;;;;5012844;28;20365;-72
2023/08/13 01:19:51;;;;;;;;;;;19.40;71.30;;;;;;5010637;28;19924;-72
2023/08/13 01:22:21;;;;;;;;;;;19.40;71.60;;;;;;5008881;28;19909;-73
2023/08/13 01:24:46;;;;;;;;;;;19.50;71.90;;;;;;5012944;28;19917;-73
2023/08/13 01:27:22;;;;;;;;;;;19.60;72.00;;;;;;5012430;28;20361;-73
2023/08/13 01:30:00;;;;;;;;;;;19.60;72.10;;;;;;5025263;28;20419;-69
2023/08/13 01:32:29;;;;;;;;;;;19.70;72.10;;;;;;5012531;28;19909;-69
2023/08/13 01:34:55;;;;;;;;;;;19.70;72.10;;;;;;5013037;28;19918;-70
2023/08/13 01:37:21;;;;;;;;;;;19.70;72.20;;;;;;5012649;28;19913;-70
2023/08/13 01:39:47;;;;;;;;;;;19.80;72.30;;;;;;5012809;28;19921;-69
2023/08/13 01:42:13;;;;;;;;;;;19.90;72.30;;;;;;4995001;28;20417;-69
2023/08/13 01:44:38;;;;;;;;;;;19.90;72.40;;;;;;5012725;28;19956;-70
2023/08/13 01:47:04;;;;;;;;;;;20.00;72.40;;;;;;5012128;28;19988;-69
2023/08/13 01:49:31;;;;;;;;;;;20.10;72.40;;;;;;5010905;28;19921;-69
2023/08/13 01:51:56;;;;;;;;;;;20.10;72.40;;;;;;5011377;28;20352;-69
2023/08/13 01:54:22;;;;;;;;;;;20.20;72.40;;;;;;5011640;28;19918;-70
2023/08/13 01:56:47;;;;;;;;;;;20.20;72.50;;;;;;5011897;28;19917;-70
2023/08/13 01:59:13;;;;;;;;;;;20.30;72.40;;;;;;5012285;28;20396;-69
2023/08/13 02:01:38;;;;;;;;;;;20.30;72.30;;;;;;5012059;28;20265;-69
2023/08/13 02:04:04;;;;;;;;;;;20.30;72.20;;;;;;5012192;28;19964;-69
2023/08/13 02:06:32;;;;;;;;;;;20.30;72.10;;;;;;5012253;28;19965;-69
2023/08/13 02:08:58;;;;;;;;;;;20.30;72.00;;;;;;5012516;28;19964;-69
2023/08/13 02:11:24;;;;;;;;;;;20.30;72.00;;;;;;5011813;28;19952;-69
2023/08/13 02:13:49;;;;;;;;;;;20.30;72.10;;;;;;5011899;28;20004;-70
2023/08/13 02:16:15;;;;;;;;;;;20.30;72.20;;;;;;5011686;28;19918;-70
2023/08/13 02:18:40;;;;;;;;;;;20.30;72.20;;;;;;5011522;28;20407;-69
2023/08/13 02:21:06;;;;;;;;;;;20.30;72.00;;;;;;5011629;28;19929;-70
2023/08/13 02:23:31;;;;;;;;;;;20.30;71.70;;;;;;5013047;28;19917;-70
2023/08/13 02:25:57;;;;;;;;;;;20.30;71.50;;;;;;5018048;28;20384;-70
2023/08/13 02:28:22;;;;;;;;;;;20.20;71.40;;;;;;5018434;28;20254;-70
2023/08/13 02:30:50;;;;;;;;;;;20.10;71.20;;;;;;5018208;28;19987;-69
2023/08/13 02:33:16;;;;;;;;;;;20.10;71.20;;;;;;5018474;28;19960;-70
2023/08/13 02:35:41;;;;;;;;;;;20.00;71.20;;;;;;5018121;28;19925;-70
2023/08/13 02:38:07;;;;;;;;;;;20.00;71.40;;;;;;5018503;28;19914;-69
2023/08/13 02:40:33;;;;;;;;;;;20.00;71.70;;;;;;5018249;28;19952;-70
2023/08/13 02:42:58;;;;;;;;;;;20.00;71.80;;;;;;5018129;28;19913;-70
2023/08/13 02:45:24;;;;;;;;;;;20.00;71.80;;;;;;5017899;28;20387;-69
2023/08/13 02:47:49;;;;;;;;;;;20.00;71.50;;;;;;5016606;28;19925;-69
2023/08/13 02:50:15;;;;;;;;;;;20.00;71.30;;;;;;5018001;28;20366;-69
2023/08/13 02:52:40;;;;;;;;;;;19.90;71.10;;;;;;5017723;28;19964;-70
2023/08/13 02:55:06;;;;;;;;;;;19.80;71.10;;;;;;5017909;28;20330;-69
2023/08/13 02:57:31;;;;;;;;;;;19.80;71.20;;;;;;5017344;28;19917;-69
2023/08/13 02:59:57;;;;;;;;;;;19.80;71.10;;;;;;5018293;28;19921;-69
2023/08/13 03:02:22;;;;;;;;;;;19.70;70.80;;;;;;5017918;28;20273;-69
2023/08/13 03:04:48;;;;;;;;;;;19.70;70.60;;;;;;5017870;28;20016;-69
2023/08/13 03:07:13;;;;;;;;;;;19.50;70.50;;;;;;5018202;28;19910;-69
2023/08/13 03:09:39;;;;;;;;;;;19.50;70.50;;;;;;5018479;28;19976;-69
2023/08/13 03:12:05;;;;;;;;;;;19.40;70.50;;;;;;5017834;28;20001;-69
2023/08/13 03:14:30;;;;;;;;;;;19.40;70.60;;;;;;5018264;28;19918;-69
2023/08/13 03:16:56;;;;;;;;;;;19.40;70.50;;;;;;5017110;28;19963;-69
2023/08/13 03:19:21;;;;;;;;;;;19.30;70.50;;;;;;5017510;28;19921;-70
2023/08/13 03:21:47;;;;;;;;;;;19.30;70.60;;;;;;5016530;28;20362;-69
2023/08/13 03:24:12;;;;;;;;;;;19.30;70.70;;;;;;5017465;28;20284;-70
2023/08/13 03:26:38;;;;;;;;;;;19.20;70.80;;;;;;5017062;28;19921;-70
2023/08/13 03:29:03;;;;;;;;;;;19.20;70.90;;;;;;5017655;28;20352;-70
2023/08/13 03:31:29;;;;;;;;;;;19.20;70.70;;;;;;5017797;28;19910;-70
2023/08/13 03:33:54;;;;;;;;;;;19.10;70.50;;;;;;5018015;28;19925;-70
2023/08/13 03:36:20;;;;;;;;;;;19.10;70.40;;;;;;4997854;28;19964;-70
2023/08/13 03:38:45;;;;;;;;;;;19.00;70.30;;;;;;5014933;28;19949;-70
2023/08/13 03:41:10;;;;;;;;;;;19.00;70.20;;;;;;5014435;28;19996;-70
2023/08/13 03:43:36;;;;;;;;;;;18.90;70.10;;;;;;5014090;28;19917;-70
2023/08/13 03:46:02;;;;;;;;;;;18.90;70.20;;;;;;5008815;28;20000;-70
2023/08/13 03:48:27;;;;;;;;;;;18.80;70.50;;;;;;5013138;28;20080;-70
2023/08/13 03:50:53;;;;;;;;;;;18.80;70.50;;;;;;5013532;28;20304;-73
2023/08/13 03:53:24;;;;;;;;;;;18.80;70.70;;;;;;5014045;28;19940;-73
2023/08/13 03:55:50;;;;;;;;;;;18.80;70.70;;;;;;5014381;28;20394;-73
2023/08/13 03:58:15;;;;;;;;;;;18.80;70.70;;;;;;5014294;28;20008;-73
2023/08/13 04:00:41;;;;;;;;;;;18.80;70.50;;;;;;5013920;28;19917;-74
2023/08/13 04:03:08;;;;;;;;;;;18.70;70.20;;;;;;4996816;28;19952;-74
2023/08/13 04:05:34;;;;;;;;;;;18.70;70.10;;;;;;4996455;28;19945;-74
2023/08/13 04:07:59;;;;;;;;;;;18.70;70.00;;;;;;5014062;28;19952;-74
2023/08/13 04:10:25;;;;;;;;;;;18.60;70.10;;;;;;5014178;28;20032;-74
2023/08/13 04:12:50;;;;;;;;;;;18.60;70.20;;;;;;5014296;28;19979;-74
2023/08/13 04:15:16;;;;;;;;;;;18.50;70.60;;;;;;5013812;28;20011;-74
2023/08/13 04:17:41;;;;;;;;;;;18.60;71.20;;;;;;5013520;28;19917;-73
2023/08/13 04:20:07;;;;;;;;;;;18.60;71.30;;;;;;5013192;28;19909;-74
2023/08/13 04:22:33;;;;;;;;;;;18.70;71.50;;;;;;5013371;28;19925;-74
2023/08/13 04:24:58;;;;;;;;;;;18.70;71.60;;;;;;5013341;28;20288;-74
2023/08/13 04:27:24;;;;;;;;;;;18.80;71.60;;;;;;5013498;28;20365;-74
2023/08/13 04:29:50;;;;;;;;;;;18.80;71.60;;;;;;5012647;28;19968;-74
2023/08/13 04:32:15;;;;;;;;;;;18.90;71.70;;;;;;5013431;28;19913;-72
2023/08/13 04:34:41;;;;;;;;;;;18.90;71.60;;;;;;5013803;28;19939;-73
2023/08/13 04:37:06;;;;;;;;;;;18.90;71.30;;;;;;4997056;28;20048;-73
2023/08/13 04:39:32;;;;;;;;;;;18.90;70.90;;;;;;4994319;28;19940;-72
2023/08/13 04:41:59;;;;;;;;;;;18.90;70.70;;;;;;4993844;28;19945;-73
2023/08/13 04:44:24;;;;;;;;;;;18.90;70.60;;;;;;4998691;28;19917;-73
2023/08/13 04:46:50;;;;;;;;;;;18.90;70.50;;;;;;5012546;28;19921;-73
2023/08/13 04:49:15;;;;;;;;;;;18.90;70.70;;;;;;5010422;28;19964;-73
2023/08/13 04:51:40;;;;;;;;;;;19.00;70.90;;;;;;5013001;28;19917;-73
2023/08/13 04:54:06;;;;;;;;;;;19.00;71.40;;;;;;5013208;28;19965;-73
2023/08/13 04:56:31;;;;;;;;;;;19.10;71.70;;;;;;4993634;28;19913;-73
2023/08/13 04:58:57;;;;;;;;;;;19.20;72.00;;;;;;4993999;28;19918;-73
2023/08/13 05:01:22;;;;;;;;;;;19.30;72.50;;;;;;4993336;28;20008;-73
2023/08/13 05:03:48;;;;;;;;;;;19.60;72.90;;;;;;4993584;28;20019;-73
2023/08/13 05:06:13;;;;;;;;;;;19.90;73.20;;;;;;4993159;28;19964;-73
2023/08/13 05:08:39;;;;;;;;;;;20.30;73.80;;;;;;4993576;28;20289;-73
2023/08/13 05:11:05;;;;;;;;;;;20.80;74.50;;;;;;4993365;28;19956;-74
2023/08/13 05:13:30;;;;;;;;;;;21.30;74.90;;;;;;4998943;28;20401;-74
2023/08/13 05:15:56;;;;;;;;;;;21.80;74.90;;;;;;5012725;28;19914;-74
2023/08/13 05:18:21;;;;;;;;;;;22.30;74.70;;;;;;5012888;28;19921;-74
2023/08/13 05:20:47;;;;;;;;;;;22.80;74.60;;;;;;5012847;28;19909;-74
2023/08/13 05:23:12;;;;;;;;;;;23.20;74.40;;;;;;5012826;28;20029;-74
2023/08/13 05:25:38;;;;;;;;;;;23.50;74.10;;;;;;5012704;28;19918;-75
2023/08/13 05:28:05;;;;;;;;;;;23.80;73.50;;;;;;5012735;28;20324;-75
2023/08/13 05:30:30;;;;;;;;;;;23.90;72.40;;;;;;5012635;28;19909;-75
2023/08/13 05:32:56;;;;;;;;;;;23.90;71.10;;;;;;5012533;28;20418;-76
2023/08/13 05:35:21;;;;;;;;;;;23.80;71.30;;;;;;5012411;28;20357;-75
2023/08/13 05:37:47;;;;;;;;;;;23.80;71.30;;;;;;5012412;28;20297;-75
2023/08/13 05:40:12;;;;;;;;;;;23.80;71.30;;;;;;5012668;28;20315;-76
2023/08/13 05:42:37;;;;;;;;;;;24.00;71.50;;;;;;5012312;28;19918;-77
2023/08/13 05:45:03;;;;;;;;;;;24.10;71.50;;;;;;5012182;28;20376;-76
2023/08/13 05:47:29;;;;;;;;;;;24.20;71.40;;;;;;5011833;28;20377;-77
2023/08/13 05:49:54;;;;;;;;;;;24.20;71.20;;;;;;4993277;28;20296;-76
2023/08/13 05:52:20;;;;;;;;;;;24.30;71.00;;;;;;5011768;28;19917;-76
2023/08/13 05:54:48;;;;;;;;;;;24.30;70.90;;;;;;5012682;28;20479;-76
2023/08/13 05:57:14;;;;;;;;;;;24.30;70.80;;;;;;5010751;28;19917;-77
2023/08/13 05:59:40;;;;;;;;;;;24.30;71.40;;;;;;5009524;28;19921;-77
2023/08/13 06:02:05;;;;;;;;;;;24.50;71.60;;;;;;5010889;28;20344;-77
2023/08/13 06:04:34;;;;;;;;;;;24.80;72.20;;;;;;5012552;28;19967;-78
2023/08/13 06:07:00;;;;;;;;;;;25.00;72.40;;;;;;5003960;28;20369;-77
2023/08/13 06:09:25;;;;;;;;;;;25.30;72.70;;;;;;4992849;28;19972;-79
2023/08/13 06:11:51;;;;;;;;;;;25.50;72.40;;;;;;4992588;28;20007;-77
2023/08/13 06:14:16;;;;;;;;;;;25.80;72.50;;;;;;4993187;28;19925;-78
2023/08/13 06:16:42;;;;;;;;;;;25.90;71.80;;;;;;4974974;28;19956;-79
2023/08/13 06:19:07;;;;;;;;;;;26.00;71.50;;;;;;5007948;28;19921;-77
2023/08/13 06:21:33;;;;;;;;;;;26.10;71.40;;;;;;5031844;28;19909;-72
2023/08/13 06:23:59;;;;;;;;;;;26.20;71.30;;;;;;5031968;28;19917;-74
2023/08/13 06:26:24;;;;;;;;;;;26.40;72.20;;;;;;5031459;28;20288;-74
2023/08/13 06:28:50;;;;;;;;;;;26.70;72.10;;;;;;5032053;28;20007;-74
2023/08/13 06:31:15;;;;;;;;;;;26.90;72.00;;;;;;5014035;28;19909;-74
2023/08/13 06:33:41;;;;;;;;;;;27.20;72.80;;;;;;5031903;28;20353;-74
2023/08/13 06:36:06;;;;;;;;;;;27.50;72.80;;;;;;5013606;28;19913;-74
2023/08/13 06:38:32;;;;;;;;;;;27.60;70.80;;;;;;5031678;28;19932;-75
2023/08/13 06:41:02;;;;;;;;;;;27.70;71.70;;;;;;5013748;28;20335;-75
2023/08/13 06:43:28;;;;;;;;;;;27.80;71.60;;;;;;5031572;28;20437;-76
2023/08/13 06:45:53;;;;;;;;;;;28.00;71.70;;;;;;5013574;28;20358;-76
2023/08/13 06:48:19;;;;;;;;;;;28.20;71.50;;;;;;4993772;28;19918;-75
2023/08/13 06:50:48;;;;;;;;;;;28.20;71.10;;;;;;5011561;28;19909;-75
2023/08/13 06:53:14;;;;;;;;;;;28.40;71.80;;;;;;4993878;28;19956;-75
2023/08/13 06:55:39;;;;;;;;;;;28.50;71.70;;;;;;5001484;28;19991;-75
2023/08/13 06:58:05;;;;;;;;;;;28.60;71.50;;;;;;5031299;28;19925;-76
2023/08/13 07:00:30;;;;;;;;;;;28.70;71.70;;;;;;5031152;28;20013;-76
2023/08/13 07:02:58;;;;;;;;;;;28.80;72.10;;;;;;5031545;28;19924;-77
2023/08/13 07:05:26;;;;;;;;;;;29.10;72.90;;;;;;5012375;28;21445;-77
2023/08/13 07:07:51;;;;;;;;;;;29.30;72.90;;;;;;5013602;28;19967;-77
2023/08/13 07:10:17;;;;;;;;;;;29.50;73.30;;;;;;5014688;28;20288;-77
2023/08/13 07:12:46;;;;;;;;;;;29.80;73.50;;;;;;5035123;28;19909;-78
2023/08/13 07:15:11;;;;;;;;;;;30.10;73.90;;;;;;5035073;28;19913;-78
2023/08/13 07:17:37;;;;;;;;;;;30.50;74.10;;;;;;5034981;28;19909;-77
2023/08/13 07:20:09;;;;;;;;;;;30.80;72.90;;;;;;5017305;28;19913;-77
2023/08/13 07:22:38;;;;;;;;;;;30.90;72.40;;;;;;5034698;28;20000;-77
2023/08/13 07:25:05;;;;;;;;;;;31.10;72.40;;;;;;5032617;28;20284;-78
2023/08/13 07:27:31;;;;;;;;;;;31.40;72.70;;;;;;5012053;28;19921;-79
2023/08/13 07:29:56;;;;;;;;;;;31.70;73.30;;;;;;4979974;28;19921;-78
2023/08/13 07:32:22;;;;;;;;;;;32.00;73.70;;;;;;4995965;28;19953;-78
2023/08/13 07:34:47;;;;;;;;;;;32.50;73.80;;;;;;5014009;28;20284;-78
2023/08/13 07:37:13;;;;;;;;;;;32.90;73.60;;;;;;5013644;28;19925;-77
2023/08/13 07:39:38;;;;;;;;;;;33.30;72.00;;;;;;5013649;28;19928;-77
2023/08/13 07:42:04;;;;;;;;;;;33.50;72.20;;;;;;5013470;28;20378;-77
2023/08/13 07:44:29;;;;;;;;;;;33.80;72.40;;;;;;5013600;28;20362;-77
2023/08/13 07:46:58;;;;;;;;;;;34.20;72.80;;;;;;5009644;28;19913;-76
2023/08/13 07:49:25;;;;;;;;;;;34.70;72.30;;;;;;4996370;28;19918;-76
2023/08/13 07:51:50;;;;;;;;;;;34.80;69.80;;;;;;4997513;28;19917;-77
2023/08/13 07:54:15;;;;;;;;;;;34.90;70.20;;;;;;4977682;28;20388;-76
2023/08/13 07:56:41;;;;;;;;;;;35.10;72.60;;;;;;4995308;28;19921;-76
2023/08/13 07:59:06;;;;;;;;;;;35.60;72.70;;;;;;4994933;28;20366;-74
2023/08/13 08:01:33;;;;;;;;;;;36.00;72.80;;;;;;4994543;28;19917;-74
2023/08/13 08:03:58;;;;;;;;;;;36.40;71.00;;;;;;4994889;28;19925;-73
2023/08/13 08:06:24;;;;;;;;;;;36.70;72.70;;;;;;5009915;28;19914;-74
2023/08/13 08:08:49;;;;;;;;;;;37.10;70.50;;;;;;4996574;28;20439;-73
2023/08/13 08:11:15;;;;;;;;;;;37.40;70.30;;;;;;4996456;28;19964;-73
2023/08/13 08:13:42;;;;;;;;;;;37.70;70.90;;;;;;5019870;28;19955;-75
2023/08/13 08:16:08;;;;;;;;;;;38.00;69.80;;;;;;5016303;28;19952;-74
2023/08/13 08:18:33;;;;;;;;;;;38.30;67.10;;;;;;5027031;28;19976;-74
2023/08/13 08:20:59;;;;;;;;;;;38.40;66.80;;;;;;4995985;28;19992;-73
2023/08/13 08:23:24;;;;;;;;;;;38.40;66.00;;;;;;5013239;28;19918;-74
2023/08/13 08:25:50;;;;;;;;;;;38.60;65.00;;;;;;5013785;28;20369;-74
2023/08/13 08:28:15;;;;;;;;;;;38.80;64.60;;;;;;4996261;28;19925;-74
2023/08/13 08:30:42;;;;;;;;;;;38.90;63.10;;;;;;5007616;28;19964;-74
2023/08/13 08:33:07;;;;;;;;;;;39.20;64.10;;;;;;5013740;28;20012;-75
2023/08/13 08:35:33;;;;;;;;;;;39.30;63.90;;;;;;5013487;28;19960;-74
2023/08/13 08:37:59;;;;;;;;;;;39.60;63.80;;;;;;5011331;28;19922;-74
2023/08/13 08:40:26;;;;;;;;;;;40.00;63.00;;;;;;4993827;28;20051;-74
2023/08/13 08:42:51;;;;;;;;;;;40.20;60.10;;;;;;5008465;28;20223;-74
2023/08/13 08:45:17;;;;;;;;;;;40.40;58.80;;;;;;5021924;28;19963;-74
2023/08/13 08:47:43;;;;;;;;;;;40.70;59.80;;;;;;5032993;28;19909;-74
2023/08/13 08:50:14;;;;;;;;;;;40.90;55.30;;;;;;5000459;28;20012;-74
2023/08/13 08:52:40;;;;;;;;;;;41.10;55.50;;;;;;5004292;28;20313;-73
2023/08/13 08:55:06;;;;;;;;;;;41.20;55.40;;;;;;5002334;28;19918;-73
2023/08/13 08:57:31;;;;;;;;;;;41.40;54.30;;;;;;5003671;28;19940;-74
2023/08/13 08:59:57;;;;;;;;;;;41.60;52.90;;;;;;4983576;28;19918;-73
2023/08/13 09:02:22;;;;;;;;;;;41.80;53.70;;;;;;5024128;28;19909;-73
2023/08/13 09:04:48;;;;;;;;;;;42.10;52.30;;;;;;5033831;28;20276;-74
2023/08/13 09:07:14;;;;;;;;;;;42.30;48.70;;;;;;5032759;28;19917;-73
2023/08/13 09:09:43;;;;;;;;;;;42.30;46.00;;;;;;5033156;28;19917;-73
2023/08/13 09:12:09;;;;;;;;;;;42.20;46.20;;;;;;5032759;28;19913;-73
2023/08/13 09:14:35;;;;;;;;;;;42.40;44.20;;;;;;5025088;28;20426;-73
2023/08/13 09:17:00;;;;;;;;;;;42.30;39.70;;;;;;5032150;28;19913;-73
2023/08/13 09:19:27;;;;;;;;;;;42.20;39.70;;;;;;5000438;28;19957;-73
2023/08/13 09:21:56;;;;;;;;;;;42.00;39.00;;;;;;5013226;28;19939;-73
2023/08/13 09:24:42;;;;;;;;;;;42.00;39.50;;;;;;5013042;28;19922;-73
2023/08/13 09:27:09;;;;;;;;;;;42.00;40.40;;;;;;5011966;28;20292;-73
2023/08/13 09:29:35;;;;;;;;;;;42.00;40.90;;;;;;5013060;28;20411;-73
2023/08/13 09:32:01;;;;;;;;;;;42.20;39.30;;;;;;5012615;28;20308;-72
2023/08/13 09:34:28;;;;;;;;;;;42.30;37.30;;;;;;4994869;28;19923;-74
2023/08/13 09:36:55;;;;;;;;;;;42.40;37.40;;;;;;4994895;28;19913;-75
2023/08/13 09:39:22;;;;;;;;;;;42.40;36.40;;;;;;5032222;28;19921;-74
2023/08/13 09:41:49;;;;;;;;;;;42.30;35.20;;;;;;5015135;28;19960;-74
2023/08/13 09:44:16;;;;;;;;;;;42.30;34.60;;;;;;5029101;28;19961;-71
2023/08/13 09:46:45;;;;;;;;;;;42.30;35.60;;;;;;4994639;28;19909;-72
2023/08/13 09:49:11;;;;;;;;;;;42.70;35.90;;;;;;4994886;28;19918;-72
2023/08/13 09:51:38;;;;;;;;;;;42.90;34.40;;;;;;5012379;28;19959;-72
2023/08/13 09:54:09;;;;;;;;;;;43.00;33.00;;;;;;4994755;28;19960;-72
2023/08/13 09:56:36;;;;;;;;;;;43.10;29.80;;;;;;5012210;28;20004;-72
2023/08/13 09:59:02;;;;;;;;;;;42.90;29.30;;;;;;4994588;28;19965;-73
2023/08/13 10:01:28;;;;;;;;;;;42.90;29.70;;;;;;5011615;28;19952;-73
2023/08/13 10:03:53;;;;;;;;;;;42.90;29.10;;;;;;5008575;28;19922;-71
2023/08/13 10:06:21;;;;;;;;;;;43.00;28.90;;;;;;5010184;28;20289;-72
2023/08/13 10:08:47;;;;;;;;;;;43.10;28.60;;;;;;5010826;28;20281;-72
2023/08/13 10:11:13;;;;;;;;;;;43.10;28.30;;;;;;4993125;28;19910;-72
2023/08/13 10:13:39;;;;;;;;;;;43.10;28.00;;;;;;5018277;28;20289;-72
2023/08/13 10:16:05;;;;;;;;;;;43.00;27.20;;;;;;4992811;28;20060;-72
2023/08/13 10:18:31;;;;;;;;;;;42.90;27.50;;;;;;5025462;28;20357;-72
2023/08/13 10:20:57;;;;;;;;;;;42.80;27.90;;;;;;5013976;28;19914;-72
2023/08/13 10:23:22;;;;;;;;;;;42.70;27.20;;;;;;5011275;28;19925;-71
2023/08/13 10:25:52;;;;;;;;;;;42.60;26.90;;;;;;4999882;28;19967;-72
2023/08/13 10:28:27;;;;;;;;;;;42.50;26.70;;;;;;5012018;28;20281;-73
2023/08/13 10:31:11;;;;;;;;;;;42.30;26.60;;;;;;5007704;28;19920;-72
2023/08/13 10:33:37;;;;;;;;;;;42.20;26.90;;;;;;5003889;28;19921;-73
2023/08/13 10:36:08;;;;;;;;;;;42.20;26.40;;;;;;4995111;28;19913;-72
2023/08/13 10:38:34;;;;;;;;;;;42.10;25.40;;;;;;5009627;28;19917;-71
2023/08/13 10:41:02;;;;;;;;;;;41.80;25.90;;;;;;5002638;28;19916;-72
2023/08/13 10:43:27;;;;;;;;;;;41.70;26.90;;;;;;5009911;28;19924;-71
2023/08/13 10:45:54;;;;;;;;;;;41.60;27.00;;;;;;4995410;28;19914;-71
2023/08/13 10:48:29;;;;;;;;;;;41.70;26.90;;;;;;5013101;28;19922;-72
2023/08/13 10:50:56;;;;;;;;;;;41.70;26.90;;;;;;5014889;28;19914;-72
2023/08/13 10:53:22;;;;;;;;;;;41.70;27.00;;;;;;4997747;28;20482;-70
2023/08/13 10:55:55;;;;;;;;;;;41.70;25.80;;;;;;5015412;28;20003;-71
2023/08/13 10:58:28;;;;;;;;;;;41.50;25.60;;;;;;5013229;28;19968;-73
2023/08/13 11:01:10;;;;;;;;;;;41.30;25.20;;;;;;5015255;28;19917;-71
2023/08/13 11:03:43;;;;;;;;;;;41.00;25.10;;;;;;5015222;28;19925;-73
2023/08/13 11:06:08;;;;;;;;;;;40.80;25.30;;;;;;5000817;28;19918;-75
2023/08/13 11:08:36;;;;;;;;;;;40.50;25.50;;;;;;5014877;28;20391;-72
2023/08/13 11:11:02;;;;;;;;;;;40.30;26.30;;;;;;5014797;28;19913;-72
2023/08/13 11:13:28;;;;;;;;;;;40.20;26.30;;;;;;4996614;28;19944;-72
2023/08/13 11:15:54;;;;;;;;;;;40.10;25.90;;;;;;5014938;28;19921;-70
2023/08/13 11:18:21;;;;;;;;;;;39.80;25.90;;;;;;5011165;28;19925;-70
2023/08/13 11:20:47;;;;;;;;;;;39.70;26.10;;;;;;5021046;28;20384;-70
2023/08/13 11:23:13;;;;;;;;;;;39.60;25.70;;;;;;5023925;28;19937;-70
2023/08/13 11:25:39;;;;;;;;;;;39.30;24.90;;;;;;5014640;28;19917;-72
2023/08/13 11:28:04;;;;;;;;;;;39.10;25.10;;;;;;5013957;28;19922;-72
2023/08/13 11:30:30;;;;;;;;;;;38.90;25.30;;;;;;5030636;28;19939;-70
2023/08/13 11:32:55;;;;;;;;;;;38.80;25.80;;;;;;5034640;28;20475;-71
2023/08/13 11:35:21;;;;;;;;;;;38.60;26.00;;;;;;5021738;28;19924;-70
2023/08/13 11:37:46;;;;;;;;;;;38.70;26.60;;;;;;5014539;28;19968;-71
2023/08/13 11:40:13;;;;;;;;;;;38.90;26.80;;;;;;5013030;28;19909;-71
2023/08/13 11:42:58;;;;;;;;;;;39.20;27.10;;;;;;4996742;28;19913;-71
2023/08/13 11:45:24;;;;;;;;;;;39.40;26.50;;;;;;5019079;28;19913;-69
2023/08/13 11:47:53;;;;;;;;;;;39.50;26.20;;;;;;5018400;28;19960;-70
2023/08/13 11:50:23;;;;;;;;;;;39.30;25.80;;;;;;5007800;28;19924;-70
2023/08/13 11:53:09;;;;;;;;;;;39.30;26.20;;;;;;5025739;28;19913;-70
2023/08/13 11:55:34;;;;;;;;;;;39.40;26.00;;;;;;5014454;28;19910;-69
2023/08/13 11:58:01;;;;;;;;;;;39.50;25.90;;;;;;5012210;28;20012;-68
2023/08/13 12:00:27;;;;;;;;;;;39.40;26.00;;;;;;5011635;28;19956;-70
2023/08/13 12:02:59;;;;;;;;;;;39.40;26.30;;;;;;5011448;28;20333;-71
2023/08/13 12:05:28;;;;;;;;;;;39.40;26.00;;;;;;5014068;28;19944;-69
2023/08/13 12:07:55;;;;;;;;;;;39.20;26.40;;;;;;4995167;28;20016;-70
2023/08/13 12:10:21;;;;;;;;;;;39.10;26.10;;;;;;4994870;28;19960;-71
2023/08/13 12:12:46;;;;;;;;;;;39.00;26.40;;;;;;5013039;28;19953;-72
2023/08/13 12:15:12;;;;;;;;;;;39.10;26.90;;;;;;5011289;28;19921;-71
2023/08/13 12:17:37;;;;;;;;;;;39.10;26.40;;;;;;4992258;28;19917;-71
2023/08/13 12:20:03;;;;;;;;;;;38.80;26.30;;;;;;5013629;28;19947;-70
2023/08/13 12:22:29;;;;;;;;;;;38.50;26.40;;;;;;5012908;28;19918;-70
2023/08/13 12:24:54;;;;;;;;;;;38.10;26.80;;;;;;4991171;28;19986;-70
2023/08/13 12:27:20;;;;;;;;;;;37.80;27.40;;;;;;5012649;28;20258;-70
2023/08/13 12:29:45;;;;;;;;;;;37.70;27.80;;;;;;5013592;28;19918;-71
2023/08/13 12:32:11;;;;;;;;;;;37.50;27.70;;;;;;5014400;28;20014;-70
2023/08/13 12:34:36;;;;;;;;;;;37.30;28.30;;;;;;5012445;28;20289;-69
2023/08/13 12:37:02;;;;;;;;;;;37.30;28.40;;;;;;5013158;28;19917;-70
2023/08/13 12:39:28;;;;;;;;;;;37.20;28.50;;;;;;5012296;28;19929;-69
2023/08/13 12:41:53;;;;;;;;;;;37.00;27.90;;;;;;4995519;28;19909;-69
2023/08/13 12:44:19;;;;;;;;;;;36.80;28.10;;;;;;5013159;28;19968;-71
2023/08/13 12:46:44;;;;;;;;;;;36.60;28.40;;;;;;5005769;28;19913;-69
2023/08/13 12:49:09;;;;;;;;;;;36.30;28.60;;;;;;5008969;28;20377;-69
2023/08/13 12:51:35;;;;;;;;;;;36.30;29.00;;;;;;5010901;28;20377;-69
2023/08/13 12:54:00;;;;;;;;;;;36.10;29.00;;;;;;5003395;28;19918;-70
2023/08/13 12:56:26;;;;;;;;;;;35.90;29.20;;;;;;4999515;28;19926;-69
2023/08/13 12:58:51;;;;;;;;;;;35.70;29.30;;;;;;5006184;28;19924;-72
2023/08/13 13:01:17;;;;;;;;;;;35.50;29.40;;;;;;5010560;28;20376;-70
2023/08/13 13:03:42;;;;;;;;;;;35.30;29.70;;;;;;5012880;28;19936;-69
2023/08/13 13:06:08;;;;;;;;;;;35.20;30.10;;;;;;5011914;28;19921;-69
2023/08/13 13:08:33;;;;;;;;;;;35.30;30.30;;;;;;5012548;28;19917;-69
2023/08/13 13:11:00;;;;;;;;;;;35.20;30.40;;;;;;5012646;28;19910;-69
2023/08/13 13:13:26;;;;;;;;;;;35.30;30.20;;;;;;5012059;28;19996;-69
2023/08/13 13:15:51;;;;;;;;;;;35.20;30.20;;;;;;5011897;28;20435;-70
2023/08/13 13:18:17;;;;;;;;;;;35.20;30.40;;;;;;5012707;28;19922;-69
2023/08/13 13:20:42;;;;;;;;;;;35.30;30.60;;;;;;5012468;28;20401;-76
2023/08/13 13:23:08;;;;;;;;;;;35.50;30.70;;;;;;5014893;28;20369;-76
2023/08/13 13:25:33;;;;;;;;;;;35.70;30.70;;;;;;4997122;28;19909;-78
2023/08/13 13:28:00;;;;;;;;;;;35.80;30.70;;;;;;5013842;28;19917;-80
2023/08/13 13:30:28;;;;;;;;;;;35.90;29.80;;;;;;4999476;28;19954;-77
2023/08/13 13:32:54;;;;;;;;;;;35.90;29.90;;;;;;5015406;28;20029;-76
2023/08/13 13:35:20;;;;;;;;;;;36.00;30.40;;;;;;5010872;28;19921;-77
2023/08/13 13:37:45;;;;;;;;;;;36.20;30.30;;;;;;5011785;28;20349;-78
2023/08/13 13:40:11;;;;;;;;;;;36.30;30.10;;;;;;4993357;28;19949;-78
2023/08/13 13:42:37;;;;;;;;;;;36.30;29.60;;;;;;5013740;28;19910;-77
2023/08/13 13:45:04;;;;;;;;;;;36.30;29.40;;;;;;5011872;28;19986;-76
2023/08/13 13:47:29;;;;;;;;;;;36.20;29.20;;;;;;5006730;28;19913;-78
2023/08/13 13:49:55;;;;;;;;;;;36.10;29.20;;;;;;5011656;28;19917;-76
2023/08/13 13:52:20;;;;;;;;;;;36.20;29.50;;;;;;5010670;28;19920;-78
2023/08/13 13:54:46;;;;;;;;;;;36.20;28.80;;;;;;5012798;28;19924;-77
2023/08/13 13:57:11;;;;;;;;;;;36.30;28.90;;;;;;5009920;28;19925;-78
2023/08/13 13:59:37;;;;;;;;;;;36.40;29.40;;;;;;5010371;28;20289;-78
2023/08/13 14:02:02;;;;;;;;;;;36.60;29.50;;;;;;5009631;28;20354;-78
2023/08/13 14:04:28;;;;;;;;;;;36.70;29.20;;;;;;5009849;28;19921;-78
2023/08/13 14:06:53;;;;;;;;;;;36.50;28.90;;;;;;5012836;28;19987;-78
2023/08/13 14:09:18;;;;;;;;;;;36.30;29.00;;;;;;5010946;28;20016;-74
2023/08/13 14:11:44;;;;;;;;;;;36.20;29.20;;;;;;4991769;28;19918;-77